sensor_id;sensor_type;location;lat;lon;timestamp;pressure;altitude;pressure_sealevel;temperature;humidity
47712;BME280;57457;51.634;5.886;2023-04-26T00:14:07;101600;;;2.0;86.7
47712;BME280;57457;51.634;5.886;2023-04-26T00:45:24;101600;;;1.8;86.9
47712;BME280;57457;51.634;5.886;2023-04-26T01:14:14;101600;;;1.5;87.2
47712;BME280;57457;51.634;5.886;2023-04-26T01:39:14;101600;;;1.3;87.1
47712;BME280;57457;51.634;5.886;2023-04-26T01:56:36;101600;;;1.1;87.3
47712;BME280;57457;51.634;5.886;2023-04-26T02:14:34;101600;;;0.9;87.4
47712;BME280;57457;51.634;5.886;2023-04-26T02:42:54;101600;;;0.8;87.6
47712;BME280;57457;51.634;5.886;2023-04-26T03:24:44;101600;;;0.6;87.9
47712;BME280;57457;51.634;5.886;2023-04-26T04:05:42;101600;;;0.6;88.0
47712;BME280;57457;51.634;5.886;2023-04-26T04:37:34;101600;;;0.4;88.2
47712;BME280;57457;51.634;5.886;2023-04-26T05:14:03;101600;;;0.2;88.6
47712;BME280;57457;51.634;5.886;2023-04-26T06:08:02;101600;;;0.5;87.6
47712;BME280;57457;51.634;5.886;2023-04-26T06:48:15;101700;;;5.8;86.2
47712;BME280;57457;51.634;5.886;2023-04-26T07:11:41;101700;;;6.0;82.6
47712;BME280;57457;51.634;5.886;2023-04-26T07:28:37;101700;;;6.8;78.7
47712;BME280;57457;51.634;5.886;2023-04-26T07:52:46;101700;;;7.4;77.0
47712;BME280;57457;51.634;5.886;2023-04-26T08:24:29;101700;;;8.1;66.9
47712;BME280;57457;51.634;5.886;2023-04-26T08:52:23;101700;;;8.9;65.0
47712;BME280;57457;51.634;5.886;2023-04-26T09:24:57;101700;;;10.1;61.2
47712;BME280;57457;51.634;5.886;2023-04-26T09:58:28;101700;;;10.6;58.8
47712;BME280;57457;51.634;5.886;2023-04-26T10:23:55;101700;;;11.1;56.2
47712;BME280;57457;51.634;5.886;2023-04-26T10:54:50;101700;;;11.7;61.4
47712;BME280;57457;51.634;5.886;2023-04-26T11:21:55;101700;;;11.5;58.7
47712;BME280;57457;51.634;5.886;2023-04-26T11:38:57;101600;;;11.1;57.3
47712;BME280;57457;51.634;5.886;2023-04-26T11:57:57;101600;;;11.2;52.2
47712;BME280;57457;51.634;5.886;2023-04-26T12:24:45;101600;;;11.6;46.9
47712;BME280;57457;51.634;5.886;2023-04-26T12:52:33;101600;;;12.6;54.5
47712;BME280;57457;51.634;5.886;2023-04-26T13:14:58;101600;;;12.3;57.4
47712;BME280;57457;51.634;5.886;2023-04-26T13:37:20;101600;;;12.2;56.4
47712;BME280;57457;51.634;5.886;2023-04-26T13:59:02;101600;;;12.0;56.6
47712;BME280;57457;51.634;5.886;2023-04-26T14:18:56;101600;;;12.0;55.1
47712;BME280;57457;51.634;5.886;2023-04-26T14:35:45;101600;;;12.3;54.1
47712;BME280;57457;51.634;5.886;2023-04-26T14:57:20;101600;;;12.9;53.4
47712;BME280;57457;51.634;5.886;2023-04-26T15:26:23;101600;;;13.0;54.8
47712;BME280;57457;51.634;5.886;2023-04-26T15:51:43;101600;;;13.2;55.8
47712;BME280;57457;51.634;5.886;2023-04-26T16:15:00;101600;;;12.9;56.2
47712;BME280;57457;51.634;5.886;2023-04-26T16:37:27;101600;;;12.7;56.7
47712;BME280;57457;51.634;5.886;2023-04-26T17:22:13;101600;;;11.9;60.8
47712;BME280;57457;51.634;5.886;2023-04-26T17:41:22;101600;;;11.7;60.3
47712;BME280;57457;51.634;5.886;2023-04-26T18:05:08;101600;;;11.4;62.0
47712;BME280;57457;51.634;5.886;2023-04-26T18:28:38;101600;;;11.0;65.9
47712;BME280;57457;51.634;5.886;2023-04-26T18:49:02;101600;;;10.5;69.9
47712;BME280;57457;51.634;5.886;2023-04-26T19:11:02;101600;;;9.9;71.2
47712;BME280;57457;51.634;5.886;2023-04-26T19:51:44;101600;;;9.4;76.4
47712;BME280;57457;51.634;5.886;2023-04-26T20:25:08;101700;;;7.6;78.2
47712;BME280;57457;51.634;5.886;2023-04-26T20:55:41;101700;;;7.6;80.3
47712;BME280;57457;51.634;5.886;2023-04-26T21:35:08;101700;;;7.4;81.0
47712;BME280;57457;51.634;5.886;2023-04-26T22:05:56;101700;;;6.7;82.7
47712;BME280;57457;51.634;5.886;2023-04-26T22:29:58;101700;;;5.8;83.9
47712;BME280;57457;51.634;5.886;2023-04-26T22:49:49;101700;;;5.1;84.5
47712;BME280;57457;51.634;5.886;2023-04-26T23:16:51;101700;;;4.4;85.0
47712;BME280;57457;51.634;5.886;2023-04-26T23:43:52;101700;;;4.0;85.2
